Time;durP1;ratioP1;P1;durP2;ratioP2;P2;SDS_P1;SDS_P2;PMS_P1;PMS_P2;Temp;Humidity;BMP_temperature;BMP_pressure;BME280_temperature;BME280_humidity;BME280_pressure;Samples;Min_cycle;Max_cycle;Signal;HPM_P1;HPM_P2
2022/07/31 00:00:24;;;;;;;8.95;2.20;;;;;;;22.51;44.29;98943.28;5071943;28;20024;-48
2022/07/31 00:02:50;;;;;;;4.70;1.88;;;;;;;22.49;44.40;98941.97;5071925;28;20024;-48
2022/07/31 00:05:16;;;;;;;6.55;2.05;;;;;;;22.36;44.40;98945.22;5054000;28;20028;-48
2022/07/31 00:07:42;;;;;;;3.95;1.80;;;;;;;22.23;45.29;98946.53;5071696;28;20163;-48
2022/07/31 00:10:08;;;;;;;6.53;2.17;;;;;;;22.07;45.37;98943.09;5071892;28;20486;-46
2022/07/31 00:12:34;;;;;;;11.60;2.20;;;;;;;22.00;45.62;98939.91;5071803;28;20028;-48
2022/07/31 00:15:02;;;;;;;6.97;1.92;;;;;;;21.89;45.86;98947.13;5053897;28;20479;-48
2022/07/31 00:17:28;;;;;;;7.00;1.88;;;;;;;21.81;45.99;98948.47;5071795;28;20038;-48
2022/07/31 00:19:54;;;;;;;5.75;2.00;;;;;;;21.78;46.41;98950.88;5053731;28;20060;-48
2022/07/31 00:22:19;;;;;;;12.82;1.92;;;;;;;21.85;45.23;98948.72;5071723;28;20103;-47
2022/07/31 00:24:45;;;;;;;7.57;2.00;;;;;;;22.07;45.03;98943.09;5071655;28;20150;-47
2022/07/31 00:27:11;;;;;;;3.33;1.80;;;;;;;22.23;44.90;98949.22;5053356;28;20494;-47
2022/07/31 00:29:37;;;;;;;6.05;2.33;;;;;;;22.22;45.32;98948.44;5053804;28;20032;-48
2022/07/31 00:32:03;;;;;;;3.30;1.73;;;;;;;22.06;45.27;98950.31;5053580;28;20143;-48
2022/07/31 00:34:29;;;;;;;8.38;2.17;;;;;;;21.89;46.23;98952.47;5071647;28;20506;-48
2022/07/31 00:36:55;;;;;;;13.20;2.05;;;;;;;21.76;46.45;98950.34;5071600;28;20028;-47
2022/07/31 00:39:20;;;;;;;7.20;2.08;;;;;;;21.73;46.39;98944.47;5071623;28;20016;-48
2022/07/31 00:41:48;;;;;;;5.93;2.05;;;;;;;21.74;46.51;98950.59;5071585;28;20032;-47
2022/07/31 00:44:14;;;;;;;7.85;2.00;;;;;;;21.72;46.70;98953.53;5071586;28;20497;-48
2022/07/31 00:46:40;;;;;;;8.05;1.80;;;;;;;21.69;46.60;98946.06;5053514;28;20050;-48
2022/07/31 00:49:09;;;;;;;3.03;1.55;;;;;;;21.67;47.00;98942.03;5071490;28;20108;-48
2022/07/31 00:51:36;;;;;;;6.88;1.75;;;;;;;21.62;46.83;98952.72;5071432;28;20071;-48
2022/07/31 00:54:02;;;;;;;4.93;1.90;;;;;;;21.51;47.21;98947.38;5074369;28;20056;-48
2022/07/31 00:56:28;;;;;;;6.82;2.25;;;;;;;21.42;47.57;98953.47;5057622;28;20086;-48
2022/07/31 00:58:54;;;;;;;6.70;2.00;;;;;;;21.38;47.68;98947.06;5075429;28;20429;-47
2022/07/31 01:01:21;;;;;;;3.45;1.88;;;;;;;21.30;47.28;98957.19;5075378;28;20078;-47
2022/07/31 01:03:47;;;;;;;6.28;2.30;;;;;;;21.24;47.88;98960.91;5075317;28;20107;-48
2022/07/31 01:06:13;;;;;;;8.82;2.53;;;;;;;21.14;48.23;98961.69;5075272;28;20099;-47
2022/07/31 01:08:39;;;;;;;3.58;1.80;;;;;;;20.99;48.81;98964.31;5075083;28;20067;-48
2022/07/31 01:11:16;;;;;;;9.48;2.47;;;;;;;20.89;49.10;98959.75;5075194;28;20021;-47
2022/07/31 01:13:54;;;;;;;9.00;2.47;;;;;;;20.81;49.43;98962.91;5057229;28;20392;-48
2022/07/31 01:16:24;;;;;;;6.80;2.28;;;;;;;20.87;49.19;98951.19;5075105;28;20482;-47
2022/07/31 01:18:54;;;;;;;5.68;1.98;;;;;;;20.90;49.09;98956.00;5075050;28;20021;-48
2022/07/31 01:21:28;;;;;;;7.70;2.00;;;;;;;20.81;49.51;98956.78;5075062;28;20078;-47
2022/07/31 01:24:14;;;;;;;7.40;2.03;;;;;;;20.80;49.57;98952.50;5075012;28;20028;-47
2022/07/31 01:26:49;;;;;;;4.75;2.70;;;;;;;20.69;49.73;98959.66;5074730;28;20070;-48
2022/07/31 01:29:34;;;;;;;10.13;2.53;;;;;;;20.63;50.57;98950.03;5074853;28;20032;-46
2022/07/31 01:32:06;;;;;;;5.37;2.30;;;;;;;20.52;51.06;98954.47;5074920;28;20078;-47
2022/07/31 01:34:56;;;;;;;6.50;2.75;;;;;;;20.30;52.88;98949.28;5074793;28;20257;-47
2022/07/31 01:37:29;;;;;;;7.93;2.92;;;;;;;20.03;54.66;98954.72;5074718;28;20024;-48
2022/07/31 01:40:02;;;;;;;6.20;2.58;;;;;;;19.71;54.35;98956.31;5074726;28;20028;-49
2022/07/31 01:42:29;;;;;;;10.10;2.50;;;;;;;19.47;54.09;98963.78;5056696;28;20052;-50
2022/07/31 01:45:01;;;;;;;5.32;1.90;;;;;;;19.34;54.50;98958.88;5074582;28;20025;-50
2022/07/31 01:47:30;;;;;;;6.30;2.15;;;;;;;19.36;54.40;98956.78;5074425;28;20025;-49
2022/07/31 01:49:57;;;;;;;5.95;2.75;;;;;;;19.44;54.22;98958.97;5074449;28;20037;-49
2022/07/31 01:52:27;;;;;;;3.20;2.25;;;;;;;19.51;54.16;98956.09;5074406;28;20020;-49
2022/07/31 01:54:54;;;;;;;3.95;1.95;;;;;;;19.64;53.99;98954.88;5056445;28;20375;-50
2022/07/31 01:57:23;;;;;;;7.85;2.83;;;;;;;19.74;53.75;98955.03;5074301;28;20025;-49
2022/07/31 01:59:52;;;;;;;8.93;2.67;;;;;;;19.81;53.48;98947.63;5056266;28;20024;-49
2022/07/31 02:02:20;;;;;;;8.18;2.53;;;;;;;19.84;53.29;98947.13;5074192;28;20028;-49
2022/07/31 02:04:47;;;;;;;4.95;2.08;;;;;;;19.99;52.60;98958.94;5073405;28;20028;-50
2022/07/31 02:07:15;;;;;;;4.10;2.08;;;;;;;19.99;52.30;98950.94;5074174;28;20367;-48
2022/07/31 02:09:43;;;;;;;9.52;2.50;;;;;;;19.94;52.34;98951.69;5074050;28;20075;-50
2022/07/31 02:12:11;;;;;;;8.55;2.22;;;;;;;19.92;52.33;98949.31;5055996;28;20024;-49
2022/07/31 02:14:42;;;;;;;6.85;2.70;;;;;;;19.89;52.31;98949.00;5056006;28;20107;-49
2022/07/31 02:17:08;;;;;;;4.78;2.10;;;;;;;19.86;52.47;98949.50;5073911;28;20016;-50
2022/07/31 02:19:39;;;;;;;4.40;2.50;;;;;;;19.84;52.41;98949.78;5055953;28;20120;-49
2022/07/31 02:22:06;;;;;;;8.77;2.10;;;;;;;19.88;52.61;98950.88;5073897;28;20417;-49
2022/07/31 02:24:33;;;;;;;6.43;2.22;;;;;;;19.88;52.65;98948.22;5073869;28;20100;-49
2022/07/31 02:26:59;;;;;;;6.25;2.10;;;;;;;19.92;52.41;98953.81;5073528;28;20041;-49
2022/07/31 02:29:30;;;;;;;6.68;2.47;;;;;;;20.05;52.17;98945.41;5073678;28;20028;-49
2022/07/31 02:31:57;;;;;;;18.45;16.55;;;;;;;20.09;52.01;98943.81;5073757;28;20025;-50
2022/07/31 02:34:23;;;;;;;8.98;3.28;;;;;;;20.10;51.82;98947.28;5055621;28;20028;-50
2022/07/31 02:36:53;;;;;;;10.70;2.45;;;;;;;20.02;52.07;98940.59;5073594;28;20029;-49
2022/07/31 02:39:21;;;;;;;6.43;2.40;;;;;;;19.95;52.33;98942.66;5055529;28;20488;-49
2022/07/31 02:41:48;;;;;;;7.93;3.08;;;;;;;19.94;52.04;98949.84;5073536;28;20107;-50
2022/07/31 02:44:14;;;;;;;4.82;2.25;;;;;;;20.05;51.86;98952.59;5055493;28;20028;-50
2022/07/31 02:46:43;;;;;;;6.85;2.17;;;;;;;20.04;51.85;98943.81;5073404;28;20035;-50
2022/07/31 02:49:12;;;;;;;10.15;3.60;;;;;;;20.05;51.68;98944.59;5073237;28;20032;-50
2022/07/31 02:51:40;;;;;;;6.53;2.03;;;;;;;20.02;51.87;98937.94;5073236;28;20024;-49
2022/07/31 02:54:06;;;;;;;7.55;2.55;;;;;;;19.99;52.07;98938.44;5055361;28;20099;-50
2022/07/31 02:56:32;;;;;;;6.45;2.50;;;;;;;20.01;51.99;98941.63;5055299;28;20765;-49
2022/07/31 02:58:59;;;;;;;5.97;2.47;;;;;;;19.98;51.90;98936.00;5073143;28;20024;-50
2022/07/31 03:01:25;;;;;;;6.95;2.78;;;;;;;19.94;52.08;98933.88;5073064;28;20435;-50
2022/07/31 03:03:50;;;;;;;3.78;2.25;;;;;;;19.94;52.31;98938.38;5073105;28;20109;-50
2022/07/31 03:06:16;;;;;;;5.00;2.85;;;;;;;19.98;52.30;98936.84;5054978;28;20024;-50
2022/07/31 03:08:43;;;;;;;7.07;2.60;;;;;;;19.95;52.31;98940.00;5072866;28;20105;-50
2022/07/31 03:11:11;;;;;;;4.32;2.85;;;;;;;19.84;52.55;98935.63;5055200;28;20039;-50
2022/07/31 03:13:37;;;;;;;5.93;2.83;;;;;;;19.64;52.95;98934.41;5072871;28;20033;-49
2022/07/31 03:16:08;;;;;;;10.85;2.90;;;;;;;19.54;53.46;98942.31;5054158;28;20119;-50
2022/07/31 03:18:35;;;;;;;4.85;2.33;;;;;;;19.45;53.60;98941.94;5072775;28;20032;-50
2022/07/31 03:21:01;;;;;;;5.75;2.47;;;;;;;19.44;53.68;98948.34;5072673;28;20040;-49
2022/07/31 03:23:35;;;;;;;5.63;2.58;;;;;;;19.47;53.73;98942.50;5072648;28;20032;-50
2022/07/31 03:26:01;;;;;;;14.68;2.45;;;;;;;19.48;53.73;98935.34;5072637;28;20047;-50
2022/07/31 03:28:27;;;;;;;5.13;2.15;;;;;;;19.47;53.67;98937.16;5038858;28;20084;-50
2022/07/31 03:30:54;;;;;;;6.68;2.58;;;;;;;19.53;53.68;98930.84;5052574;28;20048;-49
2022/07/31 03:33:21;;;;;;;8.45;2.58;;;;;;;19.60;53.21;98933.31;5052492;28;20032;-50
2022/07/31 03:35:47;;;;;;;4.57;2.00;;;;;;;19.52;53.40;98933.78;5052409;28;20119;-50
2022/07/31 03:38:13;;;;;;;4.38;2.35;;;;;;;19.44;53.80;98940.34;5052364;28;20032;-50
2022/07/31 03:40:38;;;;;;;2.50;1.95;;;;;;;19.36;54.12;98932.81;5034480;28;20022;-49
2022/07/31 03:43:06;;;;;;;13.35;2.88;;;;;;;19.20;54.36;98934.53;5034411;28;20116;-50
2022/07/31 03:45:33;;;;;;;7.18;2.78;;;;;;;19.15;54.80;98939.78;5034329;28;20013;-49
2022/07/31 03:48:01;;;;;;;3.03;2.05;;;;;;;19.07;54.79;98941.03;5052171;28;20025;-49
2022/07/31 03:50:28;;;;;;;5.78;2.25;;;;;;;18.99;55.13;98936.16;5034237;28;20039;-49
2022/07/31 03:52:55;;;;;;;4.68;2.00;;;;;;;18.99;55.14;98935.34;5034287;28;20036;-48
2022/07/31 03:55:21;;;;;;;7.43;2.97;;;;;;;19.01;55.25;98941.22;5034200;28;20021;-50
2022/07/31 03:57:48;;;;;;;5.25;2.38;;;;;;;19.11;55.22;98944.00;5051892;28;20526;-50
2022/07/31 04:00:15;;;;;;;4.82;2.60;;;;;;;19.15;55.00;98945.09;5034603;28;20099;-50
2022/07/31 04:02:41;;;;;;;3.05;2.20;;;;;;;19.12;54.96;98940.28;5052048;28;20071;-50
2022/07/31 04:05:08;;;;;;;4.53;2.10;;;;;;;19.09;55.03;98944.22;5051921;28;20029;-50
2022/07/31 04:07:34;;;;;;;9.15;2.63;;;;;;;19.03;55.35;98944.44;5051859;28;20086;-50
2022/07/31 04:10:01;;;;;;;4.65;2.50;;;;;;;18.96;55.78;98942.78;5052153;28;20025;-49
2022/07/31 04:12:27;;;;;;;8.82;2.75;;;;;;;18.90;55.73;98940.31;5034315;28;20027;-49
2022/07/31 04:14:53;;;;;;;3.10;2.25;;;;;;;18.92;55.85;98940.88;5033943;28;20112;-49
2022/07/31 04:17:19;;;;;;;5.25;2.10;;;;;;;18.94;55.72;98950.19;5051703;28;20104;-49
2022/07/31 04:19:44;;;;;;;7.70;2.20;;;;;;;18.94;55.72;98944.88;5051765;28;20033;-50
2022/07/31 04:22:10;;;;;;;5.90;2.13;;;;;;;18.91;55.62;98945.41;5033799;28;20021;-50
2022/07/31 04:24:36;;;;;;;3.88;2.13;;;;;;;18.90;55.73;98950.94;5051769;28;20029;-49
2022/07/31 04:27:03;;;;;;;8.70;2.60;;;;;;;18.84;55.80;98951.94;5055011;28;20101;-49
2022/07/31 04:29:29;;;;;;;4.28;2.47;;;;;;;18.77;56.11;98949.41;5071421;28;20040;-50
2022/07/31 04:31:55;;;;;;;4.95;2.20;;;;;;;18.71;56.37;98943.25;5053707;28;20021;-50
2022/07/31 04:34:21;;;;;;;4.72;2.30;;;;;;;18.68;56.27;98951.72;5037079;28;20025;-50
2022/07/31 04:36:47;;;;;;;7.78;2.70;;;;;;;18.66;56.50;98945.03;5036979;28;20040;-50
2022/07/31 04:39:12;;;;;;;2.50;2.00;;;;;;;18.68;56.43;98950.91;5071645;28;20025;-49
2022/07/31 04:41:38;;;;;;;6.85;2.10;;;;;;;18.67;56.35;98949.28;5071872;28;20028;-49
2022/07/31 04:44:04;;;;;;;3.78;2.10;;;;;;;18.72;56.10;98947.50;5071573;28;20028;-50
2022/07/31 04:46:30;;;;;;;7.82;2.28;;;;;;;18.80;56.20;98951.63;5071525;28;20025;-50
2022/07/31 04:48:55;;;;;;;8.95;2.20;;;;;;;18.95;56.03;98949.16;5053426;28;20024;-50
2022/07/31 04:51:23;;;;;;;6.15;2.47;;;;;;;19.28;55.06;98946.59;5053401;28;20441;-50
2022/07/31 04:53:49;;;;;;;3.28;2.10;;;;;;;19.88;53.39;98950.06;5053526;28;20103;-50
2022/07/31 04:56:32;;;;;;;5.82;2.30;;;;;;;20.49;51.81;98947.00;5053451;28;20028;-48
2022/07/31 04:58:59;;;;;;;3.65;2.00;;;;;;;21.12;50.05;98944.34;5053474;28;20035;-49
2022/07/31 05:01:26;;;;;;;8.10;2.45;;;;;;;21.73;48.78;98946.31;5071393;28;20367;-50
2022/07/31 05:03:52;;;;;;;7.68;2.42;;;;;;;22.26;47.20;98946.84;5071425;28;20021;-50
2022/07/31 05:06:17;;;;;;;7.07;2.20;;;;;;;22.76;46.22;98944.28;5053325;28;20039;-49
2022/07/31 05:08:43;;;;;;;5.75;2.20;;;;;;;23.02;45.10;98941.50;5053283;28;20579;-50
2022/07/31 05:11:21;;;;;;;5.18;1.92;;;;;;;23.27;44.25;98938.69;5053324;28;20490;-50
2022/07/31 05:13:47;;;;;;;4.90;2.00;;;;;;;23.52;44.21;98948.44;5071355;28;20108;-50
2022/07/31 05:16:13;;;;;;;4.95;2.20;;;;;;;23.75;43.73;98948.00;5071238;28;20028;-50
2022/07/31 05:18:38;;;;;;;7.65;2.58;;;;;;;23.86;42.98;98942.28;5053263;28;20021;-50
2022/07/31 05:21:04;;;;;;;6.07;2.33;;;;;;;24.02;43.03;98937.59;5071117;28;20086;-50
2022/07/31 05:23:30;;;;;;;7.72;2.30;;;;;;;24.36;42.39;98934.03;5053334;28;20562;-50
2022/07/31 05:25:55;;;;;;;11.18;2.05;;;;;;;24.82;41.07;98933.53;5071195;28;20025;-51
2022/07/31 05:28:21;;;;;;;2.63;1.98;;;;;;;25.12;40.12;98937.69;5070812;28;20131;-48
2022/07/31 05:30:47;;;;;;;3.65;1.67;;;;;;;25.51;39.29;98942.00;5071402;28;20029;-48
2022/07/31 05:33:12;;;;;;;5.38;2.00;;;;;;;25.95;38.48;98941.84;5071120;28;20021;-48
2022/07/31 05:35:38;;;;;;;5.68;2.10;;;;;;;26.50;37.55;98941.91;5071065;28;20527;-48
2022/07/31 05:38:03;;;;;;;7.03;2.00;;;;;;;27.12;36.63;98938.75;5053010;28;20032;-47
2022/07/31 05:40:29;;;;;;;6.65;2.00;;;;;;;27.72;35.56;98937.66;5072685;28;20020;-47
2022/07/31 05:42:55;;;;;;;7.53;2.13;;;;;;;28.29;33.89;98948.66;5074608;28;20028;-48
2022/07/31 05:45:20;;;;;;;4.38;2.00;;;;;;;28.77;33.31;98949.75;5074569;28;20106;-49
2022/07/31 05:47:46;;;;;;;7.53;2.30;;;;;;;29.26;32.40;98949.72;5074432;28;20108;-49
2022/07/31 05:50:13;;;;;;;6.57;2.10;;;;;;;29.74;31.69;98946.03;5056424;28;20108;-48
2022/07/31 05:52:39;;;;;;;3.13;1.55;;;;;;;30.16;31.14;98948.94;5074503;28;20508;-48
2022/07/31 05:55:05;;;;;;;6.10;2.00;;;;;;;30.59;30.42;98953.41;5056326;28;20043;-48
2022/07/31 05:57:31;;;;;;;7.10;1.70;;;;;;;31.02;30.00;98954.28;5074333;28;20044;-48
2022/07/31 05:59:58;;;;;;;4.45;1.75;;;;;;;31.34;29.40;98944.63;5074326;28;20025;-49
2022/07/31 06:02:23;;;;;;;3.28;2.00;;;;;;;31.44;29.02;98954.28;5056310;28;20021;-49
2022/07/31 06:04:49;;;;;;;7.85;2.03;;;;;;;31.70;28.81;98954.06;5074251;28;20394;-48
2022/07/31 06:07:15;;;;;;;11.90;2.47;;;;;;;32.08;28.30;98958.50;5074141;28;20020;-49
2022/07/31 06:09:40;;;;;;;9.23;1.98;;;;;;;32.38;28.02;98956.38;5074092;28;20035;-49
2022/07/31 06:12:06;;;;;;;8.57;1.95;;;;;;;32.84;27.11;98948.09;5074109;28;20029;-48
2022/07/31 06:14:32;;;;;;;9.50;2.30;;;;;;;33.13;27.17;98951.69;5074170;28;20393;-49
2022/07/31 06:16:57;;;;;;;4.25;1.98;;;;;;;33.45;26.69;98947.16;5074095;28;20024;-49
2022/07/31 06:19:23;;;;;;;6.28;1.67;;;;;;;33.80;26.21;98946.53;5074009;28;20056;-49
2022/07/31 06:21:48;;;;;;;15.05;2.35;;;;;;;34.09;25.38;98958.16;5039468;28;20503;-48
2022/07/31 06:24:14;;;;;;;6.03;2.10;;;;;;;34.51;25.14;98954.94;5073850;28;20017;-48
2022/07/31 06:26:39;;;;;;;5.20;1.80;;;;;;;34.91;24.50;98953.91;5055682;28;20054;-49
2022/07/31 06:29:06;;;;;;;3.88;1.58;;;;;;;35.37;23.90;98956.84;5073691;28;20516;-48
2022/07/31 06:31:31;;;;;;;4.55;1.60;;;;;;;35.47;23.27;98958.19;5073747;28;20016;-48
2022/07/31 06:33:57;;;;;;;5.20;1.70;;;;;;;35.56;23.44;98964.22;5055698;28;20047;-48
2022/07/31 06:36:23;;;;;;;7.05;1.85;;;;;;;35.94;23.08;98952.47;5073608;28;20059;-49
2022/07/31 06:38:48;;;;;;;2.33;1.40;;;;;;;36.28;22.36;98949.13;5055580;28;20036;-49
2022/07/31 06:43:58;;;;;;;6.90;1.77;;;;;;;37.33;21.00;98947.50;5073817;28;20557;-49
2022/07/31 06:46:24;;;;;;;7.55;2.13;;;;;;;37.82;20.53;98951.16;5055390;28;20024;-48
2022/07/31 06:48:49;;;;;;;7.05;1.98;;;;;;;38.68;20.48;98943.66;5073322;28;20025;-48
2022/07/31 06:51:15;;;;;;;5.50;1.88;;;;;;;39.03;19.88;98941.50;5073030;28;20023;-49
2022/07/31 06:53:41;;;;;;;6.47;1.73;;;;;;;39.17;19.33;98946.25;5073306;28;20060;-48
2022/07/31 06:56:06;;;;;;;10.38;2.55;;;;;;;39.51;18.21;98944.81;5073174;28;20457;-49
2022/07/31 06:58:32;;;;;;;5.25;1.80;;;;;;;39.76;18.54;98949.56;5073217;28;20100;-49
2022/07/31 07:00:57;;;;;;;10.80;2.25;;;;;;;39.74;18.60;98943.66;5073114;28;20027;-49
2022/07/31 07:03:23;;;;;;;8.57;1.77;;;;;;;39.16;18.96;98953.72;5055099;28;20031;-48
2022/07/31 07:05:49;;;;;;;3.03;1.67;;;;;;;39.25;18.54;98948.63;5055051;28;20031;-49
2022/07/31 07:08:14;;;;;;;6.97;1.92;;;;;;;39.63;18.76;98953.88;5072930;28;20024;-49
2022/07/31 07:10:40;;;;;;;10.77;2.35;;;;;;;39.40;18.41;98948.66;5054936;28;20065;-49
2022/07/31 07:13:06;;;;;;;3.35;1.23;;;;;;;39.14;18.33;98951.34;5072933;28;20028;-48
2022/07/31 07:15:31;;;;;;;9.25;2.25;;;;;;;39.22;18.93;98949.41;5072810;28;20111;-49
2022/07/31 07:17:57;;;;;;;9.70;2.05;;;;;;;38.63;18.93;98946.75;5054758;28;20455;-49
2022/07/31 07:20:23;;;;;;;11.18;2.30;;;;;;;38.46;19.81;98948.19;5054746;28;20478;-49
2022/07/31 07:22:48;;;;;;;10.05;2.47;;;;;;;37.77;20.15;98960.53;5054721;28;20024;-48
2022/07/31 07:25:14;;;;;;;2.92;1.65;;;;;;;37.51;20.20;98961.41;5054620;28;20041;-48
2022/07/31 07:27:39;;;;;;;8.57;1.73;;;;;;;37.68;20.29;98962.75;5045435;28;20048;-48
2022/07/31 07:30:06;;;;;;;9.20;2.10;;;;;;;37.43;20.46;98958.94;5034555;28;20040;-48
2022/07/31 07:32:31;;;;;;;5.65;1.38;;;;;;;37.01;21.35;98958.03;5052543;28;20023;-49
2022/07/31 07:34:57;;;;;;;6.72;1.38;;;;;;;36.44;21.59;98959.91;5034527;28;20024;-49
2022/07/31 07:37:23;;;;;;;8.55;2.00;;;;;;;36.17;22.08;98963.41;5052459;28;20028;-49
2022/07/31 07:39:48;;;;;;;6.63;1.98;;;;;;;36.39;22.00;98956.34;5052411;28;20072;-49
2022/07/31 07:42:14;;;;;;;4.90;1.50;;;;;;;36.87;21.63;98950.44;5052336;28;20025;-49
2022/07/31 07:44:39;;;;;;;6.65;1.67;;;;;;;37.47;20.21;98946.88;5034371;28;20028;-49
2022/07/31 07:47:05;;;;;;;16.52;2.15;;;;;;;38.10;19.76;98953.41;5052266;28;20017;-51
2022/07/31 07:49:31;;;;;;;14.57;2.40;;;;;;;38.54;19.01;98949.06;5034340;28;20491;-50
2022/07/31 07:51:56;;;;;;;16.10;1.65;;;;;;;38.99;18.12;98955.19;5052411;28;20036;-50
2022/07/31 07:54:22;;;;;;;5.13;1.40;;;;;;;39.10;17.91;98947.81;5052193;28;20029;-51
2022/07/31 07:56:48;;;;;;;8.80;1.67;;;;;;;38.99;18.40;98955.19;5034230;28;20494;-50
2022/07/31 07:59:13;;;;;;;20.70;2.92;;;;;;;39.46;18.22;98956.19;5052054;28;20040;-50
2022/07/31 08:01:39;;;;;;;6.45;1.95;;;;;;;39.07;18.11;98943.06;5052284;28;20021;-50
2022/07/31 08:04:05;;;;;;;13.88;2.28;;;;;;;39.25;17.65;98947.84;5051393;28;20034;-50
2022/07/31 08:06:31;;;;;;;6.55;1.67;;;;;;;39.40;17.21;98943.19;5051974;28;20021;-49
2022/07/31 08:08:57;;;;;;;10.27;1.95;;;;;;;39.42;17.49;98938.91;5051834;28;20025;-51
2022/07/31 08:11:22;;;;;;;5.22;1.50;;;;;;;39.83;16.97;98943.31;5034035;28;20032;-50
2022/07/31 08:13:48;;;;;;;7.75;1.67;;;;;;;40.11;16.97;98946.06;5051904;28;20032;-50
2022/07/31 08:16:14;;;;;;;11.13;1.98;;;;;;;40.46;16.67;98943.72;5051853;28;20107;-52
2022/07/31 08:18:39;;;;;;;12.73;2.60;;;;;;;40.66;16.75;98955.84;5052059;28;20401;-51
2022/07/31 08:21:05;;;;;;;7.93;1.92;;;;;;;40.67;16.70;98949.19;5033925;28;20100;-51
2022/07/31 08:23:31;;;;;;;5.80;1.40;;;;;;;41.01;16.02;98945.94;5033932;28;20446;-51
2022/07/31 08:25:56;;;;;;;11.68;2.63;;;;;;;41.48;15.89;98949.28;5051956;28;20036;-51
2022/07/31 08:28:25;;;;;;;5.68;1.50;;;;;;;41.87;15.68;98942.72;5066141;28;20128;-51
2022/07/31 08:30:51;;;;;;;6.32;1.42;;;;;;;42.21;15.53;98947.59;5071950;28;20355;-50
2022/07/31 08:33:16;;;;;;;6.65;1.42;;;;;;;42.41;15.44;98947.03;5053722;28;20040;-50
2022/07/31 08:35:42;;;;;;;7.80;1.90;;;;;;;42.81;15.05;98948.19;5071647;28;20032;-51
2022/07/31 08:38:08;;;;;;;4.68;1.75;;;;;;;43.19;15.04;98942.63;5053576;28;20032;-51
2022/07/31 08:40:36;;;;;;;5.03;1.48;;;;;;;43.24;14.36;98931.09;5071589;28;20438;-51
2022/07/31 08:43:03;;;;;;;10.00;1.83;;;;;;;43.85;13.99;98940.50;5071575;28;20032;-52
2022/07/31 08:45:30;;;;;;;6.35;1.60;;;;;;;44.66;13.75;98929.25;5071586;28;20436;-51
2022/07/31 08:48:01;;;;;;;6.88;1.25;;;;;;;44.92;13.48;98932.31;5053607;28;20372;-51
2022/07/31 08:50:28;;;;;;;6.88;1.48;;;;;;;45.47;13.30;98929.16;5037054;28;20444;-50
2022/07/31 08:52:57;;;;;;;8.48;1.70;;;;;;;45.51;13.02;98919.53;5071515;28;20517;-51
2022/07/31 08:55:24;;;;;;;8.32;1.50;;;;;;;45.79;12.74;98923.66;5053445;28;20025;-51
2022/07/31 08:57:50;;;;;;;4.50;1.65;;;;;;;46.08;12.79;98922.19;5053495;28;20032;-51
2022/07/31 09:00:18;;;;;;;17.83;2.75;;;;;;;45.54;12.89;98928.97;5071414;28;20028;-50
2022/07/31 09:02:44;;;;;;;5.35;1.40;;;;;;;45.36;12.85;98923.84;5071420;28;20070;-49
2022/07/31 09:05:10;;;;;;;6.20;1.50;;;;;;;45.76;12.59;98927.31;5071381;28;20029;-51
2022/07/31 09:07:36;;;;;;;7.15;1.55;;;;;;;46.06;12.49;98921.84;5053335;28;20059;-50
2022/07/31 09:10:07;;;;;;;4.72;1.23;;;;;;;45.93;12.36;98919.75;5053182;28;20501;-51
2022/07/31 09:12:33;;;;;;;7.40;1.55;;;;;;;45.97;12.71;98923.19;5053332;28;20507;-51
2022/07/31 09:14:58;;;;;;;5.70;1.48;;;;;;;46.50;12.64;98914.72;5074005;28;20052;-51
2022/07/31 09:17:35;;;;;;;4.88;1.23;;;;;;;46.52;12.19;98915.06;5057178;28;20024;-51
2022/07/31 09:20:03;;;;;;;7.00;1.50;;;;;;;46.44;12.62;98919.25;5075092;28;20413;-50
2022/07/31 09:22:30;;;;;;;3.78;1.20;;;;;;;46.63;12.09;98918.31;5075223;28;20024;-50
2022/07/31 09:25:08;;;;;;;7.35;1.80;;;;;;;46.72;12.13;98914.13;5075234;28;20275;-49
2022/07/31 09:27:34;;;;;;;5.07;1.20;;;;;;;46.92;12.23;98917.50;5074732;28;20040;-50
2022/07/31 09:30:01;;;;;;;10.85;1.60;;;;;;;47.09;11.49;98918.22;5056869;28;20023;-49
2022/07/31 09:32:26;;;;;;;4.65;1.25;;;;;;;47.27;11.27;98909.34;5074770;28;20024;-49
2022/07/31 09:34:52;;;;;;;10.57;1.67;;;;;;;47.23;11.83;98908.66;5074802;28;20035;-49
2022/07/31 09:37:23;;;;;;;10.75;2.17;;;;;;;46.94;11.59;98917.84;5074689;28;20036;-50
2022/07/31 09:39:51;;;;;;;6.20;1.40;;;;;;;46.84;11.86;98907.81;5056773;28;20025;-51
2022/07/31 09:42:18;;;;;;;9.23;1.30;;;;;;;47.08;11.71;98913.09;5074579;28;20024;-51
2022/07/31 09:44:47;;;;;;;4.47;1.30;;;;;;;47.07;11.82;98903.19;5074837;28;20069;-50
2022/07/31 09:47:28;;;;;;;10.05;1.38;;;;;;;47.28;11.40;98899.00;5074517;28;20028;-50
2022/07/31 09:50:00;;;;;;;3.42;1.10;;;;;;;47.09;10.97;98906.28;5074374;28;20020;-49
2022/07/31 09:52:28;;;;;;;5.03;1.05;;;;;;;46.60;11.21;98910.09;5074840;28;20025;-49
2022/07/31 09:55:14;;;;;;;5.63;1.38;;;;;;;46.47;11.36;98901.72;5056510;28;20397;-49
2022/07/31 09:57:52;;;;;;;9.15;2.03;;;;;;;46.35;11.61;98905.22;5074559;28;20040;-50
2022/07/31 10:00:19;;;;;;;3.85;1.20;;;;;;;46.09;11.89;98907.88;5074402;28;20055;-49
2022/07/31 10:02:47;;;;;;;7.50;1.80;;;;;;;45.93;12.06;98903.09;5074293;28;20067;-48
2022/07/31 10:05:14;;;;;;;7.45;1.23;;;;;;;46.04;11.58;98898.09;5056242;28;20456;-48
2022/07/31 10:07:40;;;;;;;5.85;1.38;;;;;;;45.81;11.78;98901.81;5074240;28;20028;-49
2022/07/31 10:10:08;;;;;;;5.50;1.50;;;;;;;45.74;11.89;98902.00;5074301;28;20448;-49
2022/07/31 10:12:38;;;;;;;2.88;0.90;;;;;;;45.92;11.48;98900.75;5056121;28;20024;-49
2022/07/31 10:15:10;;;;;;;4.13;0.98;;;;;;;45.80;11.56;98899.47;5074093;28;20459;-50
2022/07/31 10:17:41;;;;;;;4.38;1.10;;;;;;;45.76;11.58;98904.31;5074090;28;20505;-50
2022/07/31 10:20:12;;;;;;;3.72;1.27;;;;;;;45.99;11.67;98906.91;5074080;28;20036;-50
2022/07/31 10:22:45;;;;;;;6.20;1.20;;;;;;;45.68;11.35;98900.94;5074003;28;20028;-49
2022/07/31 10:25:18;;;;;;;11.07;1.60;;;;;;;45.43;11.90;98899.53;5055582;28;20028;-50
2022/07/31 10:27:45;;;;;;;4.75;1.30;;;;;;;45.22;11.82;98908.31;5073716;28;20044;-49
2022/07/31 10:30:11;;;;;;;1.27;0.90;;;;;;;44.79;12.31;98904.44;5073683;28;20028;-50
2022/07/31 10:32:37;;;;;;;4.50;1.10;;;;;;;44.74;12.42;98898.66;5073824;28;20508;-49
2022/07/31 10:35:06;;;;;;;8.15;1.27;;;;;;;45.02;11.83;98891.75;5055725;28;20021;-50
2022/07/31 10:37:42;;;;;;;6.50;1.42;;;;;;;45.11;11.97;98883.59;5073714;28;20025;-50
2022/07/31 10:40:17;;;;;;;3.88;1.48;;;;;;;45.28;12.26;98881.69;5073860;28;20036;-51
2022/07/31 10:43:00;;;;;;;5.75;1.10;;;;;;;45.29;12.16;98883.22;5055597;28;20029;-48
2022/07/31 10:45:30;;;;;;;6.35;1.70;;;;;;;45.54;11.95;98881.84;5073441;28;20119;-50
2022/07/31 10:47:59;;;;;;;5.10;1.60;;;;;;;45.49;12.16;98874.06;5073391;28;20237;-50
2022/07/31 10:50:30;;;;;;;11.05;2.05;;;;;;;44.98;12.36;98875.19;5055422;28;20027;-49
2022/07/31 10:53:10;;;;;;;14.48;1.63;;;;;;;44.90;12.52;98868.25;5073455;28;20078;-50
2022/07/31 10:55:36;;;;;;;5.95;1.20;;;;;;;44.59;13.01;98873.22;5055436;28;20047;-50
2022/07/31 10:58:14;;;;;;;6.72;1.52;;;;;;;44.78;13.08;98866.13;5073254;28;20486;-49
2022/07/31 11:00:41;;;;;;;8.23;1.20;;;;;;;45.08;12.35;98862.31;5073176;28;20025;-48
2022/07/31 11:03:18;;;;;;;7.35;1.30;;;;;;;45.56;12.08;98865.56;5073395;28;20025;-48
2022/07/31 11:05:58;;;;;;;4.53;1.80;;;;;;;45.81;11.92;98856.66;5055198;28;20032;-49
2022/07/31 11:08:25;;;;;;;3.55;0.93;;;;;;;45.36;12.16;98855.38;5055115;28;20028;-48
2022/07/31 11:10:53;;;;;;;4.65;1.40;;;;;;;45.15;12.06;98853.84;5055106;28;20397;-50
2022/07/31 11:13:21;;;;;;;5.88;1.65;;;;;;;45.20;12.25;98858.09;5072974;28;20021;-51
2022/07/31 11:15:49;;;;;;;6.22;1.30;;;;;;;45.06;12.27;98843.34;5072854;28;20396;-51
2022/07/31 11:18:21;;;;;;;3.33;1.20;;;;;;;45.37;12.09;98853.38;5072881;28;20028;-50
2022/07/31 11:21:08;;;;;;;8.48;1.13;;;;;;;45.58;11.47;98847.31;5073083;28;20028;-50
2022/07/31 11:23:35;;;;;;;3.67;1.10;;;;;;;45.64;11.93;98833.66;5054844;28;20028;-50
2022/07/31 11:26:05;;;;;;;7.00;1.20;;;;;;;45.56;11.80;98840.59;5055002;28;20437;-49
2022/07/31 11:28:31;;;;;;;3.10;1.00;;;;;;;45.38;11.79;98835.50;5072317;28;20041;-50
2022/07/31 11:30:58;;;;;;;8.18;1.58;;;;;;;45.02;11.98;98837.13;5072586;28;20023;-49
2022/07/31 11:33:44;;;;;;;5.55;1.27;;;;;;;44.60;12.41;98830.50;5072636;28;20031;-50
2022/07/31 11:36:19;;;;;;;9.18;1.67;;;;;;;44.48;12.81;98843.00;5072502;28;20043;-51